createdAt,value
2019-06-01T00:00:34.684Z,0.00
2019-06-01T00:01:34.650Z,0.00
2019-06-01T00:02:34.642Z,0.00
2019-06-01T00:03:34.614Z,0.00
2019-06-01T00:04:34.601Z,0.00
2019-06-01T00:05:34.593Z,0.00
2019-06-01T00:06:34.562Z,0.00
2019-06-01T00:07:34.543Z,0.00
2019-06-01T00:08:34.528Z,0.00
2019-06-01T00:09:34.510Z,0.00
2019-06-01T00:10:34.509Z,0.00
2019-06-01T00:11:34.473Z,0.00
2019-06-01T00:12:34.458Z,0.00
2019-06-01T00:13:34.441Z,0.00
2019-06-01T00:14:34.420Z,0.00
2019-06-01T00:15:34.421Z,0.00
2019-06-01T00:16:34.386Z,0.00
2019-06-01T00:17:34.370Z,0.00
2019-06-01T00:18:34.349Z,0.00
2019-06-01T00:19:34.332Z,0.00
2019-06-01T00:20:34.332Z,0.00
2019-06-01T00:21:34.298Z,0.00
2019-06-01T00:22:34.280Z,0.00
2019-06-01T00:23:34.260Z,0.00
2019-06-01T00:24:34.244Z,0.00
2019-06-01T00:25:34.225Z,0.00
2019-06-01T00:26:34.271Z,0.00
2019-06-01T00:27:34.195Z,0.00
2019-06-01T00:28:34.176Z,0.00
2019-06-01T00:29:34.156Z,0.00
2019-06-01T00:30:34.138Z,0.00
2019-06-01T00:31:34.133Z,0.00
2019-06-01T00:32:34.101Z,0.00
2019-06-01T00:33:34.084Z,0.00
2019-06-01T00:34:34.064Z,0.00
2019-06-01T00:35:34.048Z,0.00
2019-06-01T00:36:34.049Z,0.00
2019-06-01T00:37:34.013Z,0.00
2019-06-01T00:38:33.993Z,0.00
2019-06-01T00:39:33.984Z,0.00
2019-06-01T00:40:33.959Z,0.00
2019-06-01T00:41:33.941Z,0.00
2019-06-01T00:42:33.936Z,0.00
2019-06-01T00:43:33.905Z,0.00
2019-06-01T00:44:33.893Z,0.00
2019-06-01T00:45:33.871Z,0.00
2019-06-01T00:46:33.850Z,0.00
2019-06-01T00:47:33.854Z,0.00
2019-06-01T00:48:33.817Z,0.00
2019-06-01T00:49:33.798Z,0.00
2019-06-01T00:50:33.780Z,0.00
2019-06-01T00:51:33.761Z,0.00
2019-06-01T00:52:33.759Z,0.00
2019-06-01T00:53:33.735Z,0.00
2019-06-01T00:54:33.709Z,0.00
2019-06-01T00:55:33.693Z,0.00
2019-06-01T00:56:33.681Z,0.00
2019-06-01T00:57:33.669Z,0.00
2019-06-01T00:58:33.635Z,0.00
2019-06-01T00:59:33.618Z,0.00
2019-06-01T01:00:43.137Z,0.00
2019-06-01T01:01:33.583Z,0.00
2019-06-01T01:02:33.605Z,0.00
2019-06-01T01:03:33.547Z,0.00
2019-06-01T01:04:33.530Z,0.00
2019-06-01T01:05:33.514Z,0.00
2019-06-01T01:06:33.513Z,0.00
2019-06-01T01:07:33.475Z,0.00
2019-06-01T01:08:33.469Z,0.00
2019-06-01T01:09:33.440Z,0.00
2019-06-01T01:10:33.419Z,0.00
2019-06-01T01:11:33.403Z,0.00
2019-06-01T01:12:33.385Z,0.00
2019-06-01T01:13:33.381Z,0.00
2019-06-01T01:14:33.348Z,0.00
2019-06-01T01:15:33.330Z,0.00
2019-06-01T01:16:33.315Z,0.00
2019-06-01T01:17:33.292Z,0.00
2019-06-01T01:18:33.289Z,0.00
2019-06-01T01:19:33.265Z,0.00
2019-06-01T01:20:33.239Z,0.00
2019-06-01T01:21:33.223Z,0.00
2019-06-01T06:31:42.697Z,298.13
2019-06-01T06:32:42.653Z,303.75
2019-06-01T06:33:55.408Z,303.75
2019-06-01T06:34:42.621Z,309.38
2019-06-01T06:35:42.596Z,309.38
2019-06-01T06:36:42.578Z,309.38
2019-06-01T06:37:42.580Z,309.38
2019-06-01T06:38:42.546Z,315.00
2019-06-01T06:39:42.527Z,315.00
2019-06-01T06:40:42.520Z,320.63
2019-06-01T06:41:42.516Z,320.63
2019-06-01T06:42:42.481Z,326.25
2019-06-01T06:43:42.463Z,326.25
2019-06-01T06:44:42.454Z,326.25
2019-06-01T06:45:42.432Z,326.25
2019-06-01T06:46:42.464Z,326.25
2019-06-01T06:47:42.410Z,331.88
2019-06-01T06:48:42.387Z,331.88
2019-06-01T06:49:42.372Z,331.88
2019-06-01T06:50:42.354Z,326.25
2019-06-01T06:51:42.350Z,326.25
2019-06-01T06:52:42.340Z,326.25
2019-06-01T06:53:42.316Z,326.25
2019-06-01T06:54:42.302Z,326.25
2019-06-01T06:55:42.281Z,320.63
2019-06-01T06:56:42.278Z,320.63
2019-06-01T06:57:42.274Z,320.63
2019-06-01T06:58:42.245Z,320.63
2019-06-01T06:59:42.221Z,320.63
2019-06-01T07:00:42.206Z,303.75
2019-06-01T07:01:42.194Z,315.00
2019-06-01T07:02:42.179Z,309.38
2019-06-01T07:03:42.180Z,309.38
2019-06-01T07:04:42.150Z,298.13
2019-06-01T07:05:42.135Z,286.88
2019-06-01T07:06:42.127Z,303.75
2019-06-01T07:07:42.107Z,298.13
2019-06-01T07:08:42.107Z,298.13
2019-06-01T07:09:42.087Z,298.13
2019-06-01T07:10:42.064Z,303.75
2019-06-01T07:11:42.059Z,303.75
2019-06-01T07:12:42.036Z,303.75
2019-06-01T07:13:42.041Z,298.13
2019-06-01T07:14:42.008Z,298.13
2019-06-01T07:15:41.998Z,303.75
2019-06-01T07:16:41.981Z,298.13
2019-06-01T07:17:41.969Z,298.13
2019-06-01T07:18:41.964Z,298.13
2019-06-01T07:19:41.948Z,298.13
2019-06-01T07:20:41.927Z,298.13
2019-06-01T07:21:41.912Z,298.13
2019-06-01T07:22:41.902Z,298.13
2019-06-01T07:23:41.906Z,298.13
2019-06-01T07:24:41.868Z,298.13
2019-06-01T07:25:41.898Z,298.13
2019-06-01T07:26:41.842Z,281.25
2019-06-01T07:27:41.833Z,275.63
2019-06-01T07:28:44.522Z,275.63
2019-06-01T07:29:41.817Z,281.25
2019-06-01T07:30:50.456Z,275.63
2019-06-01T07:31:41.772Z,275.63
2019-06-01T07:32:41.763Z,281.25
2019-06-01T07:33:41.749Z,281.25
2019-06-01T09:53:03.921Z,365.63
2019-06-01T09:54:03.890Z,365.63
2019-06-01T09:55:03.893Z,365.63
2019-06-01T09:56:03.865Z,371.25
2019-06-01T09:57:03.844Z,371.25
2019-06-01T09:58:03.832Z,371.25
2019-06-01T09:59:03.821Z,371.25
2019-06-01T10:00:03.834Z,371.25
2019-06-01T10:01:03.803Z,376.88
2019-06-01T10:02:03.778Z,376.88
2019-06-01T10:03:03.775Z,376.88
2019-06-01T10:04:03.753Z,382.50
2019-06-01T10:05:03.738Z,382.50
2019-06-01T10:06:03.740Z,388.13
2019-06-01T10:07:03.715Z,388.13
2019-06-01T10:08:03.703Z,388.13
2019-06-01T10:09:03.695Z,393.75
2019-06-01T10:10:03.677Z,399.38
2019-06-01T10:11:03.687Z,399.38
2019-06-01T10:12:03.656Z,405.00
2019-06-01T10:13:07.442Z,410.63
2019-06-01T10:14:03.628Z,416.25
2019-06-01T10:15:03.642Z,421.88
2019-06-01T10:16:03.607Z,421.88
2019-06-01T10:17:03.611Z,427.50
2019-06-01T10:18:03.582Z,427.50
2019-06-01T10:19:03.573Z,433.13
2019-06-01T10:20:03.560Z,438.75
2019-06-01T10:21:03.549Z,438.75
2019-06-01T10:22:03.563Z,438.75
2019-06-01T10:23:03.526Z,444.38
2019-06-01T10:24:03.514Z,450.00
2019-06-01T10:25:03.504Z,450.00
2019-06-01T10:26:03.490Z,450.00
2019-06-01T10:27:03.511Z,450.00
2019-06-01T10:28:03.488Z,450.00
2019-06-01T10:29:03.467Z,455.63
2019-06-01T10:30:03.448Z,455.63
2019-06-01T10:31:03.452Z,461.25
2019-06-01T10:32:03.471Z,466.88
2019-06-01T10:33:03.419Z,466.88
2019-06-01T10:34:03.720Z,472.50
2019-06-01T10:35:03.393Z,472.50
2019-06-01T10:36:19.340Z,472.50
2019-06-01T10:37:03.387Z,472.50
2019-06-01T10:38:03.361Z,478.13
2019-06-01T10:39:03.350Z,483.75
2019-06-01T10:40:03.338Z,483.75
2019-06-01T10:41:03.327Z,483.75
2019-06-01T10:42:03.360Z,489.38
2019-06-01T10:43:03.306Z,489.38
2019-06-01T10:44:03.300Z,489.38
2019-06-01T10:45:03.294Z,495.00
2019-06-01T10:46:03.276Z,500.63
2019-06-01T10:47:03.265Z,500.63
2019-06-01T10:48:03.268Z,506.25
2019-06-01T10:49:03.245Z,506.25
2019-06-01T10:50:03.247Z,506.25
2019-06-01T10:51:03.230Z,506.25
2019-06-01T10:52:03.210Z,506.25
2019-06-01T10:53:03.227Z,511.88
2019-06-01T10:54:03.223Z,517.50
2019-06-01T10:55:03.180Z,517.50
2019-06-01T10:56:03.169Z,517.50
2019-06-01T10:57:03.167Z,517.50
2019-06-01T10:58:03.166Z,511.88
2019-06-01T10:59:03.153Z,517.50
2019-06-01T11:00:03.131Z,523.13
2019-06-01T11:01:03.119Z,528.75
2019-06-01T11:02:03.108Z,528.75
2019-06-01T11:03:03.110Z,534.38
2019-06-01T11:04:03.102Z,534.38
2019-06-01T11:05:03.079Z,540.00
2019-06-01T11:06:03.081Z,540.00
2019-06-01T11:07:03.062Z,545.63
2019-06-01T11:08:03.048Z,551.25
2019-06-01T11:09:03.053Z,551.25
2019-06-01T11:10:03.027Z,551.25
2019-06-01T11:11:03.018Z,551.25
2019-06-01T11:12:03.040Z,556.88
2019-06-01T11:13:02.999Z,556.88
2019-06-01T11:14:03.006Z,562.50
2019-06-01T11:15:02.979Z,562.50
2019-06-01T11:16:02.975Z,568.13
2019-06-01T11:17:02.962Z,573.75
2019-06-01T11:18:02.950Z,573.75
2019-06-01T11:19:02.952Z,579.38
2019-06-01T11:20:02.931Z,579.38
2019-06-01T11:21:02.921Z,579.38
2019-06-01T11:22:02.907Z,579.38
2019-06-01T11:23:03.076Z,573.75
2019-06-01T11:24:02.907Z,573.75
2019-06-01T11:25:02.885Z,579.38
2019-06-01T11:26:02.873Z,579.38
2019-06-01T11:27:02.861Z,579.38
2019-06-01T11:28:02.854Z,579.38
2019-06-01T11:29:02.876Z,585.00
2019-06-01T11:30:02.834Z,579.38
2019-06-01T11:31:02.826Z,579.38
2019-06-01T11:32:02.828Z,579.38
2019-06-01T11:33:02.806Z,585.00
2019-06-01T11:34:02.793Z,585.00
2019-06-01T11:35:02.803Z,590.63
2019-06-01T11:36:02.778Z,590.63
2019-06-01T11:37:05.568Z,585.00
2019-06-01T11:38:02.757Z,585.00
2019-06-01T11:39:02.746Z,590.63
2019-06-01T11:40:02.755Z,596.25
2019-06-01T11:41:02.727Z,596.25
2019-06-01T11:42:02.718Z,590.63
2019-06-01T11:43:02.708Z,590.63
2019-06-01T11:44:02.698Z,596.25
2019-06-01T11:45:02.708Z,585.00
2019-06-01T11:46:02.678Z,585.00
2019-06-01T11:47:02.670Z,573.75
2019-06-01T11:48:02.660Z,573.75
2019-06-01T11:49:02.650Z,573.75
2019-06-01T11:50:02.641Z,568.13
2019-06-01T11:51:02.646Z,562.50
2019-06-01T11:52:02.622Z,562.50
2019-06-01T11:53:02.613Z,568.13
2019-06-01T11:54:02.599Z,568.13
2019-06-01T11:55:02.591Z,568.13
2019-06-01T11:56:02.598Z,573.75
2019-06-01T11:57:02.575Z,568.13
2019-06-01T11:58:02.592Z,568.13
2019-06-01T11:59:02.554Z,568.13
2019-06-01T12:00:02.544Z,568.13
2019-06-01T12:01:02.554Z,568.13
2019-06-01T12:02:02.530Z,568.13
2019-06-01T12:03:02.539Z,573.75
2019-06-01T12:04:02.515Z,573.75
2019-06-01T12:05:02.502Z,573.75
2019-06-01T12:06:02.487Z,579.38
2019-06-01T12:07:17.156Z,585.00
2019-06-01T12:08:02.471Z,585.00
2019-06-01T12:09:02.463Z,590.63
2019-06-01T12:10:02.449Z,596.25
2019-06-01T12:11:02.443Z,601.88
2019-06-01T12:12:02.459Z,607.50
2019-06-01T12:13:02.449Z,613.13
2019-06-01T12:14:02.414Z,613.13
2019-06-01T12:15:02.406Z,613.13
2019-06-01T12:16:02.398Z,618.75
2019-06-01T12:17:02.402Z,624.38
2019-06-01T12:18:02.376Z,624.38
2019-06-01T12:19:02.367Z,630.00
2019-06-01T12:20:02.567Z,635.63
2019-06-01T12:21:02.350Z,641.25
2019-06-01T12:22:02.370Z,646.88
2019-06-01T12:23:02.331Z,641.25
2019-06-01T12:24:02.326Z,646.88
2019-06-01T12:25:02.315Z,646.88
2019-06-01T12:26:02.305Z,652.50
2019-06-01T12:27:02.296Z,658.13
2019-06-01T12:28:02.299Z,658.13
2019-06-01T12:29:02.281Z,658.13
2019-06-01T12:30:02.270Z,663.75
2019-06-01T12:31:02.263Z,663.75
2019-06-01T12:32:02.254Z,663.75
2019-06-01T12:33:02.308Z,669.38
2019-06-01T12:34:02.234Z,675.00
2019-06-01T12:35:03.472Z,675.00
2019-06-01T12:36:02.218Z,680.63
2019-06-01T12:37:02.213Z,680.63
2019-06-01T12:38:06.339Z,686.25
2019-06-01T12:39:02.195Z,691.88
2019-06-01T12:40:02.185Z,691.88
2019-06-01T12:41:02.178Z,697.50
2019-06-01T12:42:02.166Z,708.75
2019-06-01T12:43:02.158Z,714.38
2019-06-01T12:44:02.161Z,720.00
2019-06-01T12:45:02.323Z,720.00
2019-06-01T12:46:07.204Z,720.00
2019-06-01T12:47:02.123Z,725.63
2019-06-01T12:48:02.124Z,731.25
2019-06-01T12:49:02.122Z,736.88
2019-06-01T12:50:02.189Z,748.13
2019-06-01T12:51:02.094Z,765.00
2019-06-01T12:52:02.083Z,776.25
2019-06-01T12:53:02.079Z,781.88
2019-06-01T12:54:02.084Z,793.13
2019-06-01T12:55:02.062Z,810.00
2019-06-01T12:56:02.052Z,826.88
2019-06-01T12:57:02.041Z,832.50
2019-06-01T12:58:02.035Z,849.38
2019-06-01T12:59:02.043Z,877.50
2019-06-01T13:00:02.028Z,928.13
2019-06-01T13:01:02.918Z,1001.25
2019-06-01T13:02:02.005Z,1158.75
2019-06-01T13:03:07.569Z,2345.63
2019-06-01T13:04:02.009Z,3926.25
2019-06-01T13:05:01.989Z,4471.88
2019-06-01T13:06:02.085Z,4477.50
2019-06-01T13:07:01.973Z,4758.75
2019-06-01T13:08:03.075Z,5023.13
2019-06-01T13:09:01.956Z,4775.63
2019-06-01T13:10:01.970Z,4438.13
2019-06-01T13:11:01.943Z,4871.25
2019-06-01T13:12:01.941Z,5034.38
2019-06-01T13:13:01.933Z,4854.38
2019-06-01T13:14:04.265Z,4758.75
2019-06-01T13:15:01.930Z,4488.75
2019-06-01T13:16:01.910Z,5130.00
2019-06-01T13:17:07.109Z,5692.50
2019-06-01T13:18:01.895Z,5518.13
2019-06-01T13:19:01.889Z,5467.50
2019-06-01T13:20:01.936Z,5731.88
2019-06-01T13:21:01.877Z,5613.75
2019-06-01T13:22:01.887Z,5889.38
2019-06-01T13:23:01.864Z,5523.75
2019-06-01T13:24:01.858Z,4483.13
2019-06-01T13:25:01.883Z,4140.00
2019-06-01T13:26:01.868Z,3960.00
2019-06-01T13:27:01.925Z,3498.75
2019-06-01T13:28:01.835Z,3290.63
2019-06-01T13:29:01.827Z,2981.25
2019-06-01T13:30:01.821Z,2767.50
2019-06-01T13:31:01.835Z,2700.00
2019-06-01T13:32:01.811Z,2761.88
2019-06-01T13:33:01.805Z,2593.13
2019-06-01T13:34:01.848Z,2351.25
2019-06-01T13:35:01.794Z,2216.25
2019-06-01T13:36:01.800Z,2171.25
2019-06-01T13:37:01.786Z,2295.00
2019-06-01T13:38:11.516Z,2356.88
2019-06-01T13:39:01.771Z,2323.13
2019-06-01T13:40:01.769Z,2396.25
2019-06-01T13:41:01.775Z,2323.13
2019-06-01T13:42:01.755Z,2244.38
2019-06-01T13:43:01.756Z,2379.38
2019-06-01T13:44:01.747Z,2480.63
2019-06-01T13:45:01.861Z,2576.25
2019-06-01T13:46:01.754Z,2756.25
2019-06-01T13:47:01.733Z,3071.25
2019-06-01T13:48:01.731Z,3459.38
2019-06-01T13:49:01.725Z,3504.38
2019-06-01T13:50:06.288Z,3993.75
2019-06-01T13:51:01.733Z,4848.75
2019-06-01T13:52:01.715Z,5518.13
2019-06-01T13:53:01.706Z,5231.25
2019-06-01T13:54:01.704Z,5304.38
2019-06-01T13:55:01.732Z,5529.38
2019-06-01T13:56:01.694Z,5101.88
2019-06-01T13:57:01.701Z,4646.25
2019-06-01T13:58:01.688Z,4590.00
2019-06-01T13:59:01.682Z,4522.50
2019-06-01T14:00:01.679Z,4410.00
2019-06-01T14:01:01.673Z,4168.13
2019-06-01T14:02:01.678Z,3931.88
2019-06-01T14:03:01.663Z,4066.88
2019-06-01T14:04:01.658Z,4061.25
2019-06-01T14:05:01.656Z,3886.88
2019-06-01T14:06:01.656Z,4156.88
2019-06-01T14:07:01.671Z,4224.38
2019-06-01T14:08:01.644Z,3864.38
2019-06-01T14:09:01.642Z,3785.63
2019-06-01T14:10:01.641Z,3971.25
2019-06-01T14:11:01.636Z,3954.38
2019-06-01T14:12:01.669Z,3639.38
2019-06-01T14:13:05.025Z,3453.75
2019-06-01T14:14:01.631Z,3622.50
2019-06-01T14:15:01.659Z,3622.50
2019-06-01T14:16:01.623Z,3864.38
2019-06-01T14:17:01.621Z,3988.13
2019-06-01T14:18:01.629Z,3875.63
2019-06-01T14:19:01.613Z,3870.00
2019-06-01T14:20:01.608Z,4308.75
2019-06-01T14:21:01.605Z,4117.50
2019-06-01T14:22:01.600Z,3909.38
2019-06-01T14:23:01.613Z,4320.00
2019-06-01T14:24:01.597Z,4798.13
2019-06-01T14:25:12.970Z,4500.00
2019-06-01T14:26:01.591Z,4511.25
2019-06-01T14:27:01.587Z,4635.00
2019-06-01T14:28:01.597Z,4275.00
2019-06-01T14:29:01.581Z,4398.75
2019-06-01T14:30:01.586Z,4162.50
2019-06-01T14:31:01.575Z,3926.25
2019-06-01T14:32:01.576Z,4005.00
2019-06-01T14:33:01.584Z,4336.88
2019-06-01T14:34:01.571Z,4297.50
2019-06-01T14:35:01.570Z,3965.63
2019-06-01T14:36:01.564Z,4246.88
2019-06-01T14:37:01.563Z,4466.25
2019-06-01T14:38:01.573Z,4246.88
2019-06-01T14:39:01.558Z,4246.88
2019-06-01T14:40:01.564Z,4421.25
2019-06-01T14:41:01.555Z,4331.25
2019-06-01T14:42:01.552Z,4550.63
2019-06-01T14:43:01.571Z,4404.38
2019-06-01T14:44:01.549Z,4140.00
2019-06-01T14:45:01.546Z,3808.13
2019-06-01T14:46:01.544Z,3915.00
2019-06-01T14:47:05.432Z,4078.13
2019-06-01T14:48:01.547Z,4342.50
2019-06-01T14:49:01.555Z,4320.00
2019-06-01T14:50:01.539Z,4218.75
2019-06-01T14:51:01.540Z,4606.88
2019-06-01T14:52:01.559Z,4460.63
2019-06-01T14:53:01.538Z,4252.50
2019-06-01T14:54:01.548Z,4106.25
2019-06-01T14:55:01.539Z,4241.25
2019-06-01T14:56:01.537Z,4477.50
2019-06-01T14:57:01.534Z,4719.38
2019-06-01T14:58:01.532Z,4635.00
2019-06-01T14:59:02.242Z,4269.38
2019-06-01T15:00:01.536Z,4066.88
2019-06-01T15:01:01.533Z,4207.50
2019-06-01T15:02:01.532Z,4246.88
2019-06-01T15:03:01.531Z,4134.38
2019-06-01T15:04:01.549Z,4111.88
2019-06-01T15:05:01.532Z,4381.88
2019-06-01T15:06:01.532Z,4331.25
2019-06-01T15:07:01.532Z,3886.88
2019-06-01T15:08:01.529Z,3774.38
2019-06-01T15:09:17.160Z,3875.63
2019-06-01T15:10:01.530Z,3549.38
2019-06-01T15:11:01.531Z,3487.50
2019-06-01T15:12:01.530Z,3841.88
2019-06-01T15:13:03.394Z,4376.25
2019-06-01T15:14:01.563Z,4111.88
2019-06-01T15:15:02.957Z,3825.00
2019-06-01T15:16:02.035Z,3498.75
2019-06-01T15:17:02.335Z,3577.50
2019-06-01T15:18:04.830Z,3841.88
2019-06-01T15:19:02.073Z,3926.25
2019-06-01T15:20:02.684Z,3808.13
2019-06-01T15:21:02.179Z,4134.38
2019-06-01T15:22:03.505Z,4151.25
2019-06-01T15:23:03.592Z,3751.88
2019-06-01T15:24:02.317Z,3802.50
2019-06-01T15:25:03.436Z,3813.75
2019-06-01T15:26:02.614Z,3870.00
2019-06-01T15:27:01.535Z,3976.88
2019-06-01T15:28:01.593Z,3926.25
2019-06-01T15:29:01.534Z,3796.88
2019-06-01T15:30:01.550Z,3999.38
2019-06-01T15:31:01.534Z,4089.38
2019-06-01T15:32:02.295Z,3718.13
2019-06-01T15:33:03.248Z,3628.13
2019-06-01T15:34:01.915Z,3768.75
2019-06-01T15:35:03.116Z,3853.13
2019-06-01T15:36:01.843Z,3774.38
2019-06-01T15:37:01.894Z,3622.50
2019-06-01T15:38:02.749Z,3723.75
2019-06-01T15:39:02.254Z,3566.25
2019-06-01T15:40:01.565Z,3290.63
2019-06-01T15:41:02.419Z,3431.25
2019-06-01T15:42:01.552Z,3560.63
2019-06-01T15:43:01.645Z,3459.38
2019-06-01T15:44:01.546Z,3380.63
2019-06-01T15:45:01.614Z,3436.88
2019-06-01T15:46:02.101Z,3532.50
2019-06-01T15:47:02.086Z,3538.13
2019-06-01T15:48:02.410Z,3633.75
2019-06-01T15:49:01.952Z,3611.25
2019-06-01T15:50:02.639Z,3420.00
2019-06-01T15:51:06.616Z,3403.13
2019-06-01T15:52:02.028Z,3481.88
2019-06-01T15:53:01.552Z,3498.75
2019-06-01T15:54:01.565Z,3341.25
2019-06-01T15:55:02.906Z,3425.63
2019-06-01T15:56:01.553Z,3526.88
2019-06-01T15:57:02.596Z,3256.88
2019-06-01T15:58:02.900Z,3262.50
2019-06-01T15:59:02.748Z,3391.88
2019-06-01T16:00:02.991Z,3363.75
2019-06-01T16:01:03.069Z,3240.00
2019-06-01T16:02:09.233Z,3290.63
2019-06-01T16:03:01.560Z,3296.25
2019-06-01T16:04:01.564Z,3442.50
2019-06-01T16:05:01.597Z,3481.88
2019-06-01T16:06:01.575Z,3223.13
2019-06-01T16:07:01.580Z,3223.13
2019-06-01T16:08:01.745Z,3436.88
2019-06-01T16:09:01.826Z,3425.63
2019-06-01T16:10:06.627Z,3358.13
2019-06-01T16:11:04.717Z,3380.63
2019-06-01T16:12:01.800Z,3346.88
2019-06-01T16:13:01.672Z,3088.13
2019-06-01T16:14:01.771Z,2919.38
2019-06-01T16:15:02.155Z,3127.50
2019-06-01T16:16:02.364Z,3099.38
2019-06-01T16:17:02.875Z,3076.88
2019-06-01T16:18:02.078Z,3093.75
2019-06-01T16:19:05.803Z,2981.25
2019-06-01T16:20:02.342Z,2835.00
2019-06-01T16:21:02.298Z,2936.25
2019-06-01T16:22:02.645Z,3065.63
2019-06-01T16:23:02.505Z,3121.88
2019-06-01T16:24:02.369Z,2986.88
2019-06-01T16:25:02.541Z,2784.38
2019-06-01T16:26:12.713Z,2801.25
2019-06-01T16:27:02.664Z,2790.00
2019-06-01T16:28:03.127Z,2773.13
2019-06-01T16:29:03.308Z,2863.13
2019-06-01T16:30:02.395Z,2975.63
2019-06-01T16:31:02.884Z,2908.13
2019-06-01T16:32:02.937Z,2705.63
2019-06-01T16:33:02.847Z,2683.13
2019-06-01T16:34:02.763Z,2778.75
2019-06-01T16:35:02.990Z,2773.13
2019-06-01T16:36:02.782Z,2671.88
2019-06-01T16:37:01.596Z,2773.13
2019-06-01T16:38:02.854Z,3076.88
2019-06-01T16:39:04.796Z,2998.13
2019-06-01T16:40:05.949Z,2880.00
2019-06-01T16:41:01.602Z,2716.88
2019-06-01T16:42:02.142Z,2576.25
2019-06-01T16:43:01.657Z,2626.88
2019-06-01T16:44:01.842Z,2610.00
2019-06-01T16:45:01.750Z,2677.50
2019-06-01T16:46:02.086Z,2790.00
2019-06-01T16:47:02.746Z,2722.50
2019-06-01T16:48:01.739Z,2700.00
2019-06-01T16:49:01.650Z,2773.13
2019-06-01T16:50:01.881Z,2745.00
2019-06-01T16:51:02.215Z,2649.38
2019-06-01T16:52:03.056Z,2660.63
2019-06-01T16:53:02.095Z,2739.38
2019-06-01T16:54:01.985Z,2745.00
2019-06-01T16:55:02.759Z,2683.13
2019-06-01T16:56:02.013Z,2626.88
2019-06-01T16:57:02.899Z,2598.75
2019-06-01T16:58:01.625Z,2413.13
2019-06-01T16:59:02.314Z,2385.00
2019-06-01T17:00:02.761Z,2463.75
2019-06-01T17:01:02.666Z,2452.50
2019-06-01T17:02:03.178Z,2424.38
2019-06-01T17:03:02.652Z,2446.88
2019-06-01T17:04:02.624Z,2491.88
2019-06-01T17:05:02.831Z,2615.63
2019-06-01T17:06:02.759Z,2655.00
2019-06-01T17:07:05.005Z,2581.88
2019-06-01T17:08:02.701Z,2469.38
2019-06-01T17:09:03.640Z,2463.75
2019-06-01T17:10:20.523Z,2441.25
2019-06-01T17:11:02.727Z,2278.13
2019-06-01T17:12:01.647Z,2126.25
2019-06-01T17:13:03.117Z,2148.75
2019-06-01T17:14:02.787Z,2210.63
2019-06-01T17:15:03.148Z,2295.00
2019-06-01T17:16:02.942Z,2227.50
2019-06-01T17:17:03.091Z,2075.63
2019-06-01T17:18:04.824Z,1968.75
2019-06-01T17:19:02.975Z,2025.00
2019-06-01T17:20:01.680Z,1985.63
2019-06-01T17:21:01.657Z,1929.38
2019-06-01T17:22:01.661Z,1901.25
2019-06-01T17:23:18.245Z,1867.50
2019-06-01T17:24:01.684Z,1755.00
2019-06-01T17:25:01.856Z,1648.13
2019-06-01T17:26:01.959Z,1659.38
2019-06-01T17:27:02.118Z,1698.75
2019-06-01T17:28:03.032Z,1743.75
2019-06-01T17:29:02.152Z,1743.75
2019-06-01T17:30:06.151Z,1715.63
2019-06-01T17:31:02.323Z,1693.13
2019-06-01T17:32:16.706Z,1670.63
2019-06-01T17:33:02.316Z,1597.50
2019-06-01T17:34:02.508Z,1603.13
2019-06-01T17:35:03.182Z,1563.75
2019-06-01T17:36:02.808Z,1586.25
2019-06-01T17:37:02.761Z,1575.00
2019-06-01T17:38:02.751Z,1586.25
2019-06-01T17:39:02.011Z,1636.88
2019-06-01T17:40:02.456Z,1591.88
2019-06-01T17:41:02.227Z,1282.50
2019-06-01T17:42:02.472Z,1237.50
2019-06-01T17:43:02.912Z,1350.00
2019-06-01T17:44:02.595Z,1153.13
2019-06-01T17:45:03.730Z,939.38
2019-06-01T17:46:02.734Z,961.88
2019-06-01T17:47:02.026Z,1102.50
2019-06-01T17:48:18.228Z,1147.50
2019-06-01T17:49:01.974Z,1260.00
2019-06-01T17:50:02.607Z,1203.75
2019-06-01T17:51:02.563Z,1012.50
2019-06-01T17:52:01.831Z,770.63
2019-06-01T17:53:02.520Z,607.50
2019-06-01T17:54:02.793Z,495.00
2019-06-01T17:55:03.108Z,478.13
2019-06-01T17:56:01.952Z,478.13
2019-06-01T17:57:01.635Z,421.88
2019-06-01T17:58:01.686Z,421.88
2019-06-01T17:59:01.626Z,472.50
2019-06-01T18:00:01.844Z,483.75
2019-06-01T18:01:01.924Z,421.88
2019-06-01T18:02:01.829Z,365.63
2019-06-01T18:03:01.696Z,354.38
2019-06-01T18:04:01.824Z,343.13
2019-06-01T18:05:02.052Z,343.13
2019-06-01T18:06:01.795Z,337.50
2019-06-01T18:07:01.808Z,331.88
2019-06-01T18:08:01.910Z,331.88
2019-06-01T18:09:01.972Z,331.88
2019-06-01T18:10:02.446Z,331.88
2019-06-01T18:11:01.981Z,331.88
2019-06-01T18:12:01.987Z,331.88
2019-06-01T18:13:02.302Z,326.25
2019-06-01T18:14:02.109Z,326.25
2019-06-01T18:15:02.302Z,320.63
2019-06-01T18:16:02.994Z,320.63
2019-06-01T18:17:02.137Z,315.00
2019-06-01T18:18:02.304Z,309.38
2019-06-01T18:19:02.148Z,303.75
2019-06-01T18:20:02.468Z,303.75
2019-06-01T18:21:02.229Z,303.75
2019-06-01T18:22:02.586Z,298.13
2019-06-01T18:23:02.316Z,292.50
2019-06-01T18:24:03.330Z,292.50
2019-06-01T18:25:02.510Z,286.88
2019-06-01T18:26:02.556Z,286.88
2019-06-01T18:27:02.355Z,281.25
2019-06-01T18:28:02.538Z,275.63
2019-06-01T18:29:02.486Z,275.63
2019-06-01T18:30:02.730Z,270.00
2019-06-01T18:31:02.685Z,270.00
2019-06-01T18:32:01.415Z,264.38
2019-06-01T18:33:02.824Z,264.38
2019-06-01T18:34:02.991Z,258.75
2019-06-01T18:35:01.407Z,253.13
2019-06-01T18:36:01.382Z,253.13
2019-06-01T18:37:01.372Z,247.50
2019-06-01T18:38:01.380Z,236.25
2019-06-01T18:39:01.358Z,225.00
2019-06-01T18:40:01.350Z,213.75
2019-06-01T18:41:12.891Z,208.13
2019-06-01T18:42:01.340Z,196.88
2019-06-01T18:43:01.357Z,191.25
2019-06-01T18:44:01.314Z,185.63
2019-06-01T18:45:01.306Z,180.00
2019-06-01T18:46:01.293Z,174.38
2019-06-01T18:47:01.285Z,168.75
2019-06-01T18:48:01.276Z,157.50
2019-06-01T18:49:01.310Z,151.88
2019-06-01T18:50:01.258Z,146.25
2019-06-01T18:51:01.252Z,140.63
2019-06-01T18:52:01.240Z,135.00
2019-06-01T18:53:01.295Z,123.75
2019-06-01T18:54:01.235Z,123.75
2019-06-01T18:55:01.211Z,118.13
2019-06-01T18:56:01.204Z,112.50
2019-06-01T18:57:12.214Z,106.88
2019-06-01T18:58:01.183Z,101.25
2019-06-01T18:59:01.191Z,95.63
2019-06-01T19:00:01.167Z,90.00
2019-06-01T19:01:01.158Z,90.00
2019-06-01T19:02:01.143Z,84.38
2019-06-01T19:03:01.133Z,78.75
2019-06-01T19:04:01.140Z,78.75
2019-06-01T19:05:01.115Z,73.13
2019-06-01T19:06:01.104Z,67.50
2019-06-01T19:07:01.093Z,67.50
2019-06-01T19:08:01.083Z,61.88
2019-06-01T19:09:01.073Z,61.88
2019-06-01T19:10:01.078Z,56.25
2019-06-01T19:11:01.051Z,56.25
2019-06-01T19:12:01.039Z,56.25
2019-06-01T19:13:01.031Z,56.25
2019-06-01T19:14:01.017Z,50.63
2019-06-01T19:15:01.076Z,50.63
2019-06-01T19:16:00.998Z,45.00
2019-06-01T19:17:01.073Z,45.00
2019-06-01T19:18:00.976Z,39.38
2019-06-01T19:19:00.969Z,39.38
2019-06-01T19:20:00.961Z,33.75
2019-06-01T19:21:00.961Z,33.75
2019-06-01T19:22:00.937Z,28.13
2019-06-01T19:23:00.923Z,28.13
2019-06-01T19:24:00.909Z,28.13
2019-06-01T19:25:00.914Z,28.13
2019-06-01T19:26:00.887Z,22.50
2019-06-01T19:27:00.874Z,22.50
2019-06-01T19:28:00.870Z,22.50
2019-06-01T19:29:00.852Z,16.88
2019-06-01T19:30:00.876Z,16.88
2019-06-01T19:31:00.828Z,16.88
2019-06-01T19:32:00.819Z,11.25
2019-06-01T19:33:00.806Z,11.25
2019-06-01T19:34:00.793Z,11.25
2019-06-01T19:35:00.785Z,11.25
2019-06-01T19:36:00.783Z,11.25
2019-06-01T19:37:00.761Z,11.25
2019-06-01T19:38:00.747Z,5.63
2019-06-01T19:39:00.736Z,5.63
2019-06-01T19:40:00.723Z,5.63
2019-06-01T19:41:00.727Z,5.63
2019-06-01T19:42:00.700Z,5.63
2019-06-01T19:43:00.687Z,5.63
2019-06-01T19:44:00.687Z,5.63
2019-06-01T19:45:00.704Z,5.63
2019-06-01T19:46:00.663Z,0.00
2019-06-01T19:47:00.637Z,0.00
2019-06-01T19:48:00.627Z,0.00
2019-06-01T19:49:00.614Z,0.00
2019-06-01T19:50:00.601Z,0.00
2019-06-01T19:51:00.610Z,0.00
2019-06-01T19:52:00.579Z,0.00
2019-06-01T19:53:00.568Z,0.00
2019-06-01T19:54:00.553Z,0.00